createdAt,value
2022-11-16T00:02:18.906Z,7.99
2022-11-16T00:04:46.008Z,8.05
2022-11-16T00:07:12.962Z,8.08
2022-11-16T00:09:39.923Z,8.05
2022-11-16T00:12:09.679Z,8.07
2022-11-16T00:14:36.855Z,8.14
2022-11-16T00:17:04.411Z,8.13
2022-11-16T00:19:31.494Z,8.07
2022-11-16T00:21:58.772Z,8.05
2022-11-16T00:24:25.828Z,8.11
2022-11-16T00:26:54.844Z,8.03
2022-11-16T00:29:26.560Z,7.93
2022-11-16T00:31:54.296Z,7.93
2022-11-16T00:34:22.569Z,7.88
2022-11-16T00:36:49.772Z,7.98
2022-11-16T00:39:17.862Z,7.95
2022-11-16T00:41:46.842Z,7.77
2022-11-16T00:44:13.883Z,7.82
2022-11-16T00:46:41.299Z,7.76
2022-11-16T00:49:08.710Z,7.89
2022-11-16T00:51:36.952Z,7.90
2022-11-16T00:54:05.345Z,7.89
2022-11-16T00:56:35.883Z,7.90
2022-11-16T00:59:03.438Z,8.01
2022-11-16T01:01:30.542Z,8.01
2022-11-16T01:03:57.516Z,8.07
2022-11-16T01:06:24.364Z,8.10
2022-11-16T01:08:51.451Z,8.06
2022-11-16T01:11:37.196Z,8.13
2022-11-16T01:14:06.452Z,8.13
2022-11-16T01:16:33.283Z,8.10
2022-11-16T01:19:00.601Z,7.97
2022-11-16T01:21:28.259Z,7.97
2022-11-16T01:23:57.170Z,7.98
2022-11-16T01:26:24.784Z,7.92
2022-11-16T01:28:52.673Z,7.91
2022-11-16T01:31:20.223Z,7.89
2022-11-16T01:33:49.352Z,7.85
2022-11-16T01:36:25.911Z,8.02
2022-11-16T01:38:54.188Z,7.85
2022-11-16T01:41:26.395Z,7.85
2022-11-16T01:44:07.411Z,7.79
2022-11-16T01:46:48.223Z,7.78
2022-11-16T01:49:20.674Z,7.87
2022-11-16T01:51:53.543Z,7.87
2022-11-16T01:54:21.147Z,7.82
2022-11-16T01:57:00.709Z,7.81
2022-11-16T01:59:38.073Z,7.80
2022-11-16T02:02:07.239Z,7.82
2022-11-16T02:04:35.023Z,7.92
2022-11-16T02:07:28.025Z,7.86
2022-11-16T02:10:30.428Z,7.94
2022-11-16T02:13:07.518Z,8.02
2022-11-16T02:15:49.712Z,8.02
2022-11-16T02:18:35.726Z,7.88
2022-11-16T02:21:24.764Z,7.89
2022-11-16T02:24:26.085Z,7.81
2022-11-16T02:27:11.869Z,7.71
2022-11-16T02:29:47.726Z,7.71
2022-11-16T02:32:31.730Z,7.81
2022-11-16T02:35:13.805Z,7.84
2022-11-16T02:37:48.700Z,7.88
2022-11-16T02:40:20.549Z,7.79
2022-11-16T02:43:17.855Z,7.79
2022-11-16T02:45:49.912Z,7.77
2022-11-16T02:48:24.803Z,7.80
2022-11-16T02:50:53.589Z,7.76
2022-11-16T02:53:22.132Z,7.81
2022-11-16T02:55:49.341Z,7.81
2022-11-16T02:58:26.110Z,7.74
2022-11-16T03:01:30.119Z,7.83
2022-11-16T03:04:11.796Z,7.83
2022-11-16T03:06:41.648Z,7.83
2022-11-16T03:09:17.248Z,7.83
2022-11-16T03:12:02.305Z,7.76
2022-11-16T03:14:38.977Z,7.73
2022-11-16T03:17:14.282Z,7.71
2022-11-16T03:19:51.892Z,7.68
2022-11-16T03:22:30.946Z,7.68
2022-11-16T03:24:57.989Z,7.58
2022-11-16T03:27:30.342Z,7.56
2022-11-16T03:30:05.811Z,7.66
2022-11-16T03:32:34.365Z,7.69
2022-11-16T03:35:21.662Z,7.69
2022-11-16T03:37:52.220Z,7.75
2022-11-16T03:40:23.258Z,7.81
2022-11-16T03:42:51.208Z,7.79
2022-11-16T03:45:18.984Z,7.75
2022-11-16T03:47:46.325Z,7.52
2022-11-16T03:50:15.114Z,7.57
2022-11-16T03:52:43.486Z,7.66
2022-11-16T03:55:12.892Z,7.65
2022-11-16T03:57:40.103Z,7.76
2022-11-16T04:00:08.119Z,7.70
2022-11-16T04:02:41.480Z,7.65
2022-11-16T04:05:31.339Z,7.63
2022-11-16T04:08:17.624Z,7.59
2022-11-16T04:11:03.116Z,7.52
2022-11-16T04:13:52.027Z,7.40
2022-11-16T04:16:37.471Z,7.48
2022-11-16T04:19:27.702Z,7.38
2022-11-16T04:22:25.902Z,7.43
2022-11-16T04:24:58.665Z,7.43
2022-11-16T04:27:48.486Z,7.28
2022-11-16T04:30:16.124Z,7.33
2022-11-16T04:33:02.145Z,7.25
2022-11-16T04:35:47.447Z,7.26
2022-11-16T04:38:14.786Z,7.20
2022-11-16T04:40:41.673Z,7.23
2022-11-16T04:43:11.489Z,7.23
2022-11-16T04:46:00.028Z,7.13
2022-11-16T04:48:34.627Z,7.16
2022-11-16T04:51:02.830Z,7.05
2022-11-16T04:53:30.550Z,6.95
2022-11-16T04:56:07.997Z,6.97
2022-11-16T04:58:35.262Z,7.01
2022-11-16T05:01:02.964Z,6.99
2022-11-16T05:03:29.956Z,6.98
2022-11-16T05:05:56.777Z,7.01
2022-11-16T05:08:25.513Z,7.07
2022-11-16T05:10:53.877Z,7.08
2022-11-16T05:13:20.727Z,7.04
2022-11-16T05:15:49.899Z,7.13
2022-11-16T05:18:17.203Z,7.14
2022-11-16T05:21:02.271Z,6.95
2022-11-16T05:23:52.988Z,7.02
2022-11-16T05:26:22.506Z,7.18
2022-11-16T05:28:50.399Z,7.12
2022-11-16T05:31:17.301Z,7.15
2022-11-16T05:33:44.709Z,7.08
2022-11-16T05:36:12.932Z,7.02
2022-11-16T05:38:39.855Z,7.22
2022-11-16T05:41:06.686Z,7.16
2022-11-16T05:43:33.859Z,7.24
2022-11-16T05:46:11.720Z,7.36
2022-11-16T05:48:39.257Z,7.27
2022-11-16T05:51:07.183Z,7.27
2022-11-16T05:53:34.922Z,7.44
2022-11-16T05:56:02.125Z,7.46
2022-11-16T05:58:30.657Z,7.41
2022-11-16T06:00:59.571Z,7.50
2022-11-16T06:03:29.635Z,7.42
2022-11-16T06:05:58.270Z,7.30
2022-11-16T06:08:27.267Z,7.25
2022-11-16T06:10:56.685Z,7.08
2022-11-16T06:13:23.636Z,7.21
2022-11-16T06:15:55.112Z,7.15
2022-11-16T06:18:22.887Z,6.92
2022-11-16T06:20:50.589Z,7.20
2022-11-16T06:23:20.965Z,7.50
2022-11-16T06:25:52.184Z,8.00
2022-11-16T06:28:19.072Z,8.43
2022-11-16T06:30:46.218Z,8.73
2022-11-16T06:33:13.131Z,9.40
2022-11-16T06:35:40.061Z,9.91
2022-11-16T06:38:08.029Z,10.16
2022-11-16T06:40:35.094Z,10.98
2022-11-16T06:43:03.513Z,11.21
2022-11-16T06:45:30.595Z,11.50
2022-11-16T06:48:00.527Z,11.69
2022-11-16T06:50:27.474Z,11.79
2022-11-16T06:52:55.202Z,11.78
2022-11-16T06:55:23.110Z,12.05
2022-11-16T06:57:49.995Z,12.10
2022-11-16T07:00:17.855Z,12.38
2022-11-16T07:02:46.573Z,12.68
2022-11-16T07:05:17.100Z,12.72
2022-11-16T07:07:45.543Z,12.83
2022-11-16T07:10:13.505Z,13.09
2022-11-16T07:12:41.945Z,13.29
2022-11-16T07:15:09.304Z,13.21
2022-11-16T07:17:39.803Z,13.20
2022-11-16T07:20:07.093Z,12.85
2022-11-16T07:22:33.875Z,13.22
2022-11-16T07:25:00.779Z,13.49
2022-11-16T07:27:27.628Z,13.39
2022-11-16T07:29:54.497Z,13.78
2022-11-16T07:32:33.936Z,14.06
2022-11-16T07:35:03.802Z,14.03
2022-11-16T07:37:31.709Z,14.20
2022-11-16T07:39:58.686Z,14.47
2022-11-16T07:42:25.618Z,14.61
2022-11-16T07:45:08.031Z,14.83
2022-11-16T07:47:39.829Z,14.74
2022-11-16T07:50:11.667Z,14.61
2022-11-16T07:52:38.521Z,14.43
2022-11-16T07:55:08.360Z,14.61
2022-11-16T07:57:35.486Z,14.30
2022-11-16T08:00:06.571Z,14.27
2022-11-16T08:02:47.336Z,13.80
2022-11-16T08:05:18.467Z,13.63
2022-11-16T08:07:46.199Z,13.82
2022-11-16T08:10:13.307Z,13.36
2022-11-16T08:12:40.810Z,13.15
2022-11-16T08:15:08.400Z,13.44
2022-11-16T08:17:35.248Z,13.88
2022-11-16T08:20:04.848Z,14.12
2022-11-16T08:22:31.708Z,14.29
2022-11-16T08:24:58.558Z,14.53
2022-11-16T08:27:26.045Z,14.49
2022-11-16T08:29:56.266Z,14.73
2022-11-16T08:32:23.540Z,13.98
2022-11-16T08:34:50.594Z,14.23
2022-11-16T08:37:17.503Z,13.81
2022-11-16T08:39:45.686Z,14.22
2022-11-16T08:42:12.996Z,14.76
2022-11-16T08:44:44.052Z,15.19
2022-11-16T08:47:14.070Z,15.49
2022-11-16T08:52:45.466Z,15.60
2022-11-16T08:55:13.988Z,15.71
2022-11-16T08:57:42.351Z,15.41
2022-11-16T09:00:12.510Z,15.32
2022-11-16T09:02:39.329Z,15.04
2022-11-16T09:05:08.038Z,15.73
2022-11-16T09:07:34.842Z,16.00
2022-11-16T09:10:01.669Z,15.81
2022-11-16T09:15:12.506Z,15.36
2022-11-16T09:17:39.372Z,15.54
2022-11-16T09:20:06.872Z,15.83
2022-11-16T09:22:33.881Z,15.89
2022-11-16T09:25:00.868Z,15.88
2022-11-16T09:27:27.659Z,16.16
2022-11-16T09:29:54.455Z,16.34
2022-11-16T09:32:21.297Z,15.92
2022-11-16T09:34:48.174Z,16.21
2022-11-16T09:37:15.454Z,16.45
2022-11-16T09:39:42.244Z,16.60
2022-11-16T09:42:46.313Z,16.62
2022-11-16T09:45:41.328Z,16.32
2022-11-16T09:48:12.442Z,16.65
2022-11-16T09:51:02.946Z,16.36
2022-11-16T09:53:40.335Z,16.08
2022-11-16T09:56:17.780Z,16.20
2022-11-16T09:59:01.401Z,16.66
2022-11-16T10:01:47.941Z,16.36
2022-11-16T10:04:20.753Z,16.30
2022-11-16T10:06:58.857Z,16.56
2022-11-16T10:09:26.089Z,16.60
2022-11-16T10:12:05.869Z,15.98
2022-11-16T10:14:50.637Z,15.96
2022-11-16T10:17:31.847Z,16.43
2022-11-16T10:20:39.803Z,16.08
2022-11-16T10:23:12.301Z,16.31
2022-11-16T10:25:50.672Z,16.35
2022-11-16T10:28:26.604Z,16.31
2022-11-16T10:31:19.781Z,16.30
2022-11-16T10:33:51.256Z,16.62
2022-11-16T10:36:21.441Z,16.63
2022-11-16T10:38:48.596Z,16.76
2022-11-16T10:41:21.568Z,16.72
2022-11-16T10:43:48.679Z,16.68
2022-11-16T10:46:19.793Z,16.53
2022-11-16T10:48:58.874Z,16.69
2022-11-16T10:51:25.761Z,16.54
2022-11-16T10:53:53.296Z,16.41
2022-11-16T10:56:28.384Z,16.47
2022-11-16T10:58:56.768Z,16.45
2022-11-16T11:01:59.184Z,16.68
2022-11-16T11:04:31.396Z,17.07
2022-11-16T11:07:16.823Z,17.17
2022-11-16T11:09:43.922Z,16.88
2022-11-16T11:12:40.562Z,17.02
2022-11-16T11:15:25.808Z,17.34
2022-11-16T11:18:19.478Z,17.24
2022-11-16T11:21:15.487Z,17.21
2022-11-16T11:23:50.829Z,17.15
2022-11-16T11:26:37.561Z,16.48
2022-11-16T11:29:22.433Z,16.58
2022-11-16T11:31:53.160Z,17.00
2022-11-16T11:34:46.046Z,17.00
2022-11-16T11:37:17.552Z,17.04
2022-11-16T11:39:45.044Z,17.37
2022-11-16T11:42:15.005Z,17.10
2022-11-16T11:45:00.766Z,17.11
2022-11-16T11:48:14.618Z,17.18
2022-11-16T11:50:57.703Z,17.20
2022-11-16T11:53:27.439Z,17.01
2022-11-16T11:56:00.598Z,17.46
2022-11-16T11:58:34.065Z,17.43
2022-11-16T12:01:25.938Z,17.30
2022-11-16T12:04:05.884Z,17.28
2022-11-16T12:07:15.529Z,17.08
2022-11-16T12:10:29.666Z,17.24
2022-11-16T12:13:20.966Z,17.61
2022-11-16T12:16:11.424Z,17.36
2022-11-16T12:18:49.921Z,17.54
2022-11-16T12:21:36.250Z,17.80
2022-11-16T12:24:43.411Z,17.71
2022-11-16T12:27:40.093Z,18.06
2022-11-16T12:30:07.038Z,18.22
2022-11-16T12:32:45.361Z,17.85
2022-11-16T12:35:37.067Z,17.74
2022-11-16T12:38:29.982Z,17.83
2022-11-16T12:41:21.751Z,18.06
2022-11-16T12:43:59.727Z,17.87
2022-11-16T12:46:47.788Z,17.72
2022-11-16T12:49:24.319Z,17.76
2022-11-16T12:51:59.930Z,17.61
2022-11-16T12:55:23.629Z,17.30
2022-11-16T12:58:01.314Z,17.66
2022-11-16T13:00:32.836Z,17.68
2022-11-16T13:03:13.108Z,17.44
2022-11-16T13:05:42.852Z,17.74
2022-11-16T13:08:23.822Z,17.37
2022-11-16T13:10:57.501Z,17.22
2022-11-16T13:13:38.594Z,17.09
2022-11-16T13:16:07.027Z,16.85
2022-11-16T13:18:37.812Z,16.88
2022-11-16T13:21:15.937Z,16.97
2022-11-16T13:23:48.726Z,16.85
2022-11-16T13:26:21.432Z,16.83
2022-11-16T13:29:04.057Z,17.03
2022-11-16T13:31:36.799Z,16.89
2022-11-16T13:34:11.904Z,16.35
2022-11-16T13:36:43.778Z,16.32
2022-11-16T13:39:18.688Z,16.37
2022-11-16T13:42:05.609Z,16.23
2022-11-16T13:44:33.685Z,15.83
2022-11-16T13:47:06.253Z,15.48
2022-11-16T13:49:36.747Z,15.23
2022-11-16T13:52:23.300Z,14.89
2022-11-16T13:54:54.678Z,14.75
2022-11-16T13:57:26.077Z,14.54
2022-11-16T14:00:02.240Z,14.54
2022-11-16T14:02:31.157Z,14.53
2022-11-16T14:05:01.430Z,14.58
2022-11-16T14:07:47.205Z,14.60
2022-11-16T14:10:36.037Z,14.80
2022-11-16T14:13:04.574Z,14.85
2022-11-16T14:15:38.756Z,14.88
2022-11-16T14:18:09.308Z,14.77
2022-11-16T14:20:51.449Z,14.79
2022-11-16T14:23:29.265Z,14.52
2022-11-16T14:26:14.731Z,14.50
2022-11-16T14:29:09.100Z,14.42
2022-11-16T14:31:59.583Z,14.15
2022-11-16T14:34:44.782Z,14.00
2022-11-16T14:37:28.520Z,13.84
2022-11-16T14:40:15.886Z,13.72
2022-11-16T14:43:15.533Z,13.66
2022-11-16T14:45:39.202Z,13.58
2022-11-16T14:48:15.411Z,13.52
2022-11-16T14:50:46.874Z,13.41
2022-11-16T14:53:19.685Z,13.40
2022-11-16T14:55:46.534Z,13.36
2022-11-16T14:58:22.144Z,13.28
2022-11-16T15:00:59.080Z,13.27
2022-11-16T15:03:30.118Z,13.15
2022-11-16T15:06:02.454Z,13.03
2022-11-16T15:08:54.519Z,12.81
2022-11-16T15:11:51.631Z,12.77
2022-11-16T15:14:21.538Z,12.74
2022-11-16T15:16:55.697Z,12.76
2022-11-16T15:19:24.295Z,12.68
2022-11-16T15:22:02.588Z,12.60
2022-11-16T15:24:34.471Z,12.67
2022-11-16T15:27:11.700Z,12.44
2022-11-16T15:29:39.133Z,12.21
2022-11-16T15:32:12.996Z,12.23
2022-11-16T15:34:40.924Z,12.31
2022-11-16T15:37:11.855Z,12.25
2022-11-16T15:39:39.664Z,12.26
2022-11-16T15:42:08.180Z,12.31
2022-11-16T15:44:35.256Z,12.27
2022-11-16T15:47:03.335Z,12.27
2022-11-16T15:49:33.841Z,12.21
2022-11-16T15:52:01.275Z,12.24
2022-11-16T15:54:31.153Z,12.22
2022-11-16T15:57:12.484Z,12.05
2022-11-16T15:59:39.837Z,11.99
2022-11-16T16:02:17.607Z,11.95
2022-11-16T16:04:44.444Z,11.96
2022-11-16T16:07:11.346Z,11.99
2022-11-16T16:09:40.495Z,11.95
2022-11-16T16:12:19.387Z,11.96
2022-11-16T16:14:49.152Z,11.93
2022-11-16T16:17:27.953Z,11.98
2022-11-16T16:19:58.928Z,11.84
2022-11-16T16:22:33.116Z,11.80
2022-11-16T16:25:01.605Z,11.88
2022-11-16T16:27:30.084Z,11.60
2022-11-16T16:29:58.351Z,11.52
2022-11-16T16:32:26.628Z,11.48
2022-11-16T16:34:55.076Z,11.32
2022-11-16T16:37:22.522Z,11.10
2022-11-16T16:39:49.380Z,11.22
2022-11-16T16:42:17.041Z,11.03
2022-11-16T16:44:45.450Z,11.09
2022-11-16T16:47:12.656Z,11.42
2022-11-16T16:49:39.751Z,11.29
2022-11-16T16:52:07.750Z,11.18
2022-11-16T16:54:34.626Z,11.10
2022-11-16T16:57:02.493Z,11.01
2022-11-16T16:59:32.704Z,10.98
2022-11-16T17:01:59.912Z,10.87
2022-11-16T17:04:26.847Z,10.81
2022-11-16T17:06:54.464Z,10.73
2022-11-16T17:09:21.368Z,10.83
2022-11-16T17:11:48.436Z,10.86
2022-11-16T17:14:15.344Z,10.85
2022-11-16T17:16:42.290Z,10.86
2022-11-16T17:19:09.144Z,10.73
2022-11-16T17:21:35.940Z,10.85
2022-11-16T17:24:02.815Z,10.73
2022-11-16T17:26:29.715Z,10.75
2022-11-16T17:28:57.938Z,10.76
2022-11-16T17:31:26.115Z,10.61
2022-11-16T17:33:52.975Z,10.58
2022-11-16T17:36:20.127Z,10.38
2022-11-16T17:38:47.144Z,10.22
2022-11-16T17:41:19.258Z,10.13
2022-11-16T17:43:46.562Z,10.27
2022-11-16T17:46:16.330Z,10.28
2022-11-16T17:48:45.474Z,10.11
2022-11-16T17:51:13.730Z,10.06
2022-11-16T17:53:40.954Z,9.95
2022-11-16T17:56:08.392Z,9.88
2022-11-16T17:58:35.258Z,10.10
2022-11-16T18:01:02.115Z,9.92
2022-11-16T18:03:29.074Z,9.83
2022-11-16T18:06:11.127Z,9.59
2022-11-16T18:08:38.145Z,9.76
2022-11-16T18:11:13.743Z,9.74
2022-11-16T18:13:40.965Z,9.68
2022-11-16T18:16:14.066Z,9.61
2022-11-16T18:18:42.005Z,9.55
2022-11-16T18:21:09.882Z,9.60
2022-11-16T18:23:38.104Z,9.41
2022-11-16T18:26:14.509Z,9.35
2022-11-16T18:28:43.994Z,9.26
2022-11-16T18:31:13.997Z,9.20
2022-11-16T18:33:40.883Z,9.41
2022-11-16T18:36:08.691Z,9.68
2022-11-16T18:38:36.530Z,9.87
2022-11-16T18:41:12.281Z,9.51
2022-11-16T18:43:48.404Z,9.35
2022-11-16T18:46:15.481Z,9.41
2022-11-16T18:48:43.507Z,9.65
2022-11-16T18:51:11.286Z,9.84
2022-11-16T18:53:38.528Z,9.87
2022-11-16T18:56:06.069Z,9.98
2022-11-16T18:58:49.941Z,9.96
2022-11-16T19:01:19.341Z,9.86
2022-11-16T19:03:46.355Z,9.74
2022-11-16T19:06:14.958Z,9.53
2022-11-16T19:08:42.933Z,9.44
2022-11-16T19:11:12.877Z,9.55
2022-11-16T19:13:41.572Z,9.61
2022-11-16T19:16:09.803Z,9.69
2022-11-16T19:18:37.303Z,9.56
2022-11-16T19:21:06.285Z,9.57
2022-11-16T19:23:44.531Z,9.35
2022-11-16T19:26:13.415Z,9.30
2022-11-16T19:28:42.540Z,9.16
2022-11-16T19:31:17.072Z,9.20
2022-11-16T19:33:44.635Z,9.05
2022-11-16T19:36:19.009Z,8.95
2022-11-16T19:38:47.415Z,9.03
2022-11-16T19:41:15.882Z,9.33
2022-11-16T19:43:42.817Z,9.32
2022-11-16T19:46:11.812Z,9.35
2022-11-16T19:48:39.265Z,9.35
2022-11-16T19:51:15.460Z,9.36
2022-11-16T19:53:42.606Z,9.27
2022-11-16T19:56:12.202Z,9.45
2022-11-16T19:58:39.117Z,9.35
2022-11-16T20:01:09.910Z,9.47
2022-11-16T20:03:40.573Z,9.47
2022-11-16T20:06:11.105Z,9.36
2022-11-16T20:08:39.510Z,9.40
2022-11-16T20:11:20.337Z,9.41
2022-11-16T20:13:48.435Z,9.36
2022-11-16T20:16:16.454Z,9.38
2022-11-16T20:18:44.555Z,9.38
2022-11-16T20:21:34.687Z,9.37
2022-11-16T20:24:06.707Z,9.30
2022-11-16T20:26:36.935Z,9.29
2022-11-16T20:29:04.082Z,9.39
2022-11-16T20:31:32.762Z,9.24
2022-11-16T20:34:04.985Z,9.43
2022-11-16T20:36:33.490Z,9.38
2022-11-16T20:39:00.645Z,9.36
2022-11-16T20:41:32.347Z,9.27
2022-11-16T20:44:01.590Z,9.55
2022-11-16T20:46:30.966Z,9.71
2022-11-16T20:48:59.510Z,9.54
2022-11-16T20:51:27.800Z,9.43
2022-11-16T20:53:54.692Z,9.52
2022-11-16T20:56:21.959Z,9.24
2022-11-16T20:58:49.691Z,9.29
2022-11-16T21:01:17.850Z,9.52
2022-11-16T21:03:44.857Z,9.43
2022-11-16T21:06:15.481Z,9.34
2022-11-16T21:08:42.652Z,9.23
2022-11-16T21:11:25.088Z,9.32
2022-11-16T21:14:11.192Z,9.09
2022-11-16T21:16:38.948Z,9.13
2022-11-16T21:19:06.149Z,9.14
2022-11-16T21:21:33.604Z,9.35
2022-11-16T21:24:00.688Z,9.19
2022-11-16T21:26:29.779Z,9.00
2022-11-16T21:28:57.884Z,9.09
2022-11-16T21:31:27.568Z,9.02
2022-11-16T21:33:54.931Z,8.97
2022-11-16T21:36:24.765Z,8.97
2022-11-16T21:38:52.580Z,9.00
2022-11-16T21:41:21.326Z,9.11
2022-11-16T21:43:48.421Z,8.98
2022-11-16T21:46:24.962Z,8.95
2022-11-16T21:48:53.865Z,8.86
2022-11-16T21:51:22.585Z,8.88
2022-11-16T21:53:49.446Z,8.87
2022-11-16T21:56:19.455Z,8.90
2022-11-16T21:58:46.928Z,8.90
2022-11-16T22:01:16.147Z,8.94
2022-11-16T22:03:44.807Z,9.02
2022-11-16T22:06:34.655Z,8.88
2022-11-16T22:09:01.962Z,9.13
2022-11-16T22:11:29.060Z,9.07
2022-11-16T22:13:55.880Z,9.09
2022-11-16T22:16:23.571Z,9.09
2022-11-16T22:18:50.912Z,8.92
2022-11-16T22:21:17.780Z,9.08
2022-11-16T22:23:44.691Z,9.09
2022-11-16T22:26:13.072Z,9.06
2022-11-16T22:28:40.373Z,9.13
2022-11-16T22:31:14.933Z,9.17
2022-11-16T22:33:42.500Z,9.18
2022-11-16T22:36:10.839Z,9.32
2022-11-16T22:38:38.183Z,9.38
2022-11-16T22:41:05.440Z,9.29
2022-11-16T22:43:33.137Z,9.35
2022-11-16T22:46:05.573Z,9.39
2022-11-16T22:48:33.504Z,9.51
2022-11-16T22:51:27.856Z,9.48
2022-11-16T22:53:56.182Z,9.51
2022-11-16T22:56:23.833Z,9.48
2022-11-16T22:58:51.145Z,9.48
2022-11-16T23:01:18.276Z,9.51
2022-11-16T23:03:45.189Z,9.52
2022-11-16T23:06:12.019Z,9.44
2022-11-16T23:08:40.183Z,9.49
2022-11-16T23:11:27.330Z,9.49
2022-11-16T23:14:12.895Z,9.60
2022-11-16T23:16:40.930Z,9.54
2022-11-16T23:19:27.967Z,9.53
2022-11-16T23:22:14.632Z,9.58
2022-11-16T23:25:00.335Z,9.67
2022-11-16T23:27:37.407Z,9.68
2022-11-16T23:30:12.140Z,9.68
2022-11-16T23:32:40.404Z,9.62
2022-11-16T23:35:07.909Z,9.62
2022-11-16T23:37:35.040Z,9.68
2022-11-16T23:40:01.850Z,9.68
2022-11-16T23:42:48.226Z,9.72
2022-11-16T23:45:15.438Z,9.71
2022-11-16T23:47:42.625Z,9.72
2022-11-16T23:50:09.641Z,9.68
2022-11-16T23:52:36.461Z,9.70
2022-11-16T23:55:03.364Z,9.62
2022-11-16T23:57:30.135Z,9.63
2022-11-16T23:59:56.949Z,9.63
